GMAD/AGA METAR and TAF weather

Enter ICAO airport designator
Station Type Date Time Source
GMAD METAR 2021/09/25 11:00 UTC NOAA

GMAD 251100Z 32005KT 260V010 CAVOK 25/15 Q1017 NOSIG


Station Type Date Time Source
GMAD Decoded METAR 2021/09/25 11:00 UTC NOAA

Agadir Al Massira, Morocco (GMAD) 30-20N 009-24W 74M
Sep 25, 2021 - 07:00 AM EDT / 2021.09.25 1100 UTC
Wind: from the NW (320 degrees) at 6 MPH (5 KT) (direction variable):0
Visibility: greater than 7 mile(s):0
Temperature: 77 F (25 C)
Dew Point: 59 F (15 C)
Relative Humidity: 53%
Pressure (altimeter): 30.03 in. Hg (1017 hPa)
ob: GMAD 251100Z 32005KT 260V010 CAVOK 25/15 Q1017 NOSIG
cycle: 11

Station Type Date Time Source
GMAD TAF 2021/09/25 12:18 UTC NOAA

TAF TAF GMAD 251100Z 2512/2618 28012KT 8000 NSC
BECMG 2519/2522 12005KT
BECMG 2612/2614 28012KT

Example: see airport list